Weather History for Mammoth, CA

Change the Weather History Date:

Saturday, August 30, 2014

  Actual Average Record
Temperature  
Mean Temperature 68 °F -  
Max Temperature 82 °F 72 °F 86 °F (1998)
Min Temperature 55 °F 56 °F 32 °F (2010)
Cooling Degree Days 4    
Growing Degree Days 18 (Base 50)    
Moisture  
Dew Point 24 °F    
Average Humidity 20    
Maximum Humidity 31    
Minimum Humidity 11    
Precipitation  
Precipitation 0.00 in - - ()
Sea Level Pressure  
Sea Level Pressure 30.20 in    
Wind  
Wind Speed 7 mph (WSW)    
Max Wind Speed 23 mph    
Max Gust Speed 32 mph    
Visibility 10 miles    
Events      
Averages and records for this station are not official NWS values.
T = Trace of Precipitation, MM = Missing Value Source: NWS Daily Summary

Daily Weather History Graph

Daily Weather History Graph

Search for Another Location

Airport:

Trip Planner

Search our weather history database for the weather conditions in past years. The results will help you decide how hot, cold, wet, or windy it might be!

Date:

Astronomy

Aug. 30, 2014 Rise Set
Actual Time 6:23 AM PDT 7:27 PM PDT
Civil Twilight 5:57 AM PDT 7:54 PM PDT
Nautical Twilight 5:25 AM PDT 8:25 PM PDT
Astronomical Twilight 4:51 AM PDT 8:59 PM PDT
Moon 11:10 AM PDT (8/30) 10:11 PM PDT (8/30)
Length of Visible Light 13h 57m
Length of Day
13h 03m
Waxing Crescent, 24% of the Moon is Illuminated
Aug 30
Waxing Crescent
Sep 2
First Quarter
Sep 8
Full
Sep 15
Last Quarter
Sep 23
New

Hourly Weather History & Observations

Time (PDT) Temp. Dew Point Humidity Pressure Visibility Wind Dir Wind Speed Gust Speed Precip Events Conditions
12:15 AM 62.6 °F 26.6 °F 26% 30.23 in 10.0 mi SE 3.5 mph - N/A   Clear
12:35 AM 57.2 °F 23.0 °F 27% 30.24 in 10.0 mi West 3.5 mph - N/A   Clear
12:55 AM 55.4 °F 23.0 °F 29% 30.24 in 10.0 mi NNE 6.9 mph - N/A   Clear
1:15 AM 57.2 °F 21.2 °F 25% 30.23 in 10.0 mi Calm Calm - N/A   Clear
1:35 AM 59.0 °F 21.2 °F 23% 30.23 in 10.0 mi West 4.6 mph - N/A   Clear
1:55 AM 55.4 °F 21.2 °F 26% 30.23 in 10.0 mi NNW 5.8 mph - N/A   Clear
2:15 AM 55.4 °F 21.2 °F 26% 30.22 in 10.0 mi NNW 3.5 mph - N/A   Clear
2:35 AM 62.6 °F 23.0 °F 22% 30.22 in 10.0 mi West 6.9 mph - N/A   Clear
2:55 AM 60.8 °F 23.0 °F 23% 30.21 in 10.0 mi Calm Calm - N/A   Clear
3:15 AM 62.6 °F 21.2 °F 20% 30.21 in 10.0 mi Calm Calm - N/A   Clear
3:35 AM 60.8 °F 23.0 °F 23% 30.22 in 10.0 mi Calm Calm - N/A   Clear
3:55 AM 59.0 °F 28.4 °F 31% 30.22 in 10.0 mi SE 6.9 mph - N/A   Clear
4:15 AM 62.6 °F 23.0 °F 22% 30.21 in 10.0 mi Calm Calm - N/A   Clear
4:35 AM 60.8 °F 23.0 °F 23% 30.21 in 10.0 mi SSE 4.6 mph - N/A   Clear
4:55 AM 62.6 °F 24.8 °F 24% 30.20 in 10.0 mi SSE 5.8 mph - N/A   Clear
5:15 AM 60.8 °F 23.0 °F 23% 30.20 in 10.0 mi ESE 5.8 mph - N/A   Clear
5:35 AM 60.8 °F 23.0 °F 23% 30.20 in 10.0 mi SE 6.9 mph - N/A   Clear
5:55 AM 59.0 °F 24.8 °F 27% 30.20 in 10.0 mi SE 5.8 mph - N/A   Clear
6:15 AM 60.8 °F 23.0 °F 23% 30.20 in 10.0 mi ESE 6.9 mph - N/A   Clear
6:35 AM 60.8 °F 24.8 °F 25% 30.21 in 10.0 mi ESE 4.6 mph - N/A   Clear
6:55 AM 60.8 °F 24.8 °F 25% 30.22 in 10.0 mi SE 5.8 mph - N/A   Clear
7:15 AM 62.6 °F 24.8 °F 24% 30.22 in 10.0 mi Calm Calm - N/A   Clear
7:35 AM 60.8 °F 24.8 °F 25% 30.22 in 10.0 mi ESE 4.6 mph - N/A   Clear
7:55 AM 62.6 °F 24.8 °F 24% 30.22 in 10.0 mi ESE 6.9 mph - N/A   Clear
8:15 AM 62.6 °F 26.6 °F 26% 30.23 in 10.0 mi ESE 5.8 mph - N/A   Clear
8:35 AM 62.6 °F 30.2 °F 30% 30.23 in 10.0 mi Calm Calm - N/A   Clear
8:55 AM 64.4 °F 26.6 °F 24% 30.24 in 10.0 mi East 5.8 mph - N/A   Clear
9:15 AM 66.2 °F 28.4 °F 24% 30.24 in 10.0 mi SSE 4.6 mph - N/A   Clear
9:35 AM 68.0 °F 26.6 °F 21% 30.24 in 10.0 mi Calm Calm - N/A   Clear
9:55 AM 71.6 °F 26.6 °F 19% 30.24 in 10.0 mi NNW 5.8 mph - N/A   Clear
10:15 AM 71.6 °F 30.2 °F 22% 30.24 in 10.0 mi West 6.9 mph - N/A   Clear
10:35 AM 75.2 °F 28.4 °F 18% 30.24 in 10.0 mi WSW 17.3 mph 20.7 mph N/A   Clear
10:55 AM 77.0 °F 30.2 °F 18% 30.24 in 10.0 mi West 17.3 mph 25.3 mph N/A   Clear
11:15 AM 77.0 °F 30.2 °F 18% 30.23 in 10.0 mi West 19.6 mph 32.2 mph N/A   Clear
11:35 AM 77.0 °F 28.4 °F 17% 30.22 in 10.0 mi WSW 16.1 mph 26.5 mph N/A   Clear
11:55 AM 78.8 °F 26.6 °F 15% 30.22 in 10.0 mi West 16.1 mph 21.9 mph N/A   Clear
12:15 PM 78.8 °F 24.8 °F 14% 30.21 in 10.0 mi WSW 21.9 mph 28.8 mph N/A   Clear
1:15 PM 80.6 °F 24.8 °F 13% 30.21 in 10.0 mi WSW 18.4 mph 27.6 mph N/A   Clear
1:35 PM 80.6 °F 24.8 °F 13% 30.20 in 10.0 mi WSW 21.9 mph 29.9 mph N/A   Clear
1:55 PM 80.6 °F 24.8 °F 13% 30.20 in 10.0 mi West 10.4 mph 26.5 mph N/A   Clear
2:15 PM 80.6 °F 23.0 °F 12% 30.20 in 10.0 mi West 19.6 mph 27.6 mph N/A   Clear
2:35 PM 80.6 °F 24.8 °F 13% 30.19 in 10.0 mi West 13.8 mph 29.9 mph N/A   Clear
2:55 PM 82.4 °F 23.0 °F 11% 30.19 in 10.0 mi West 21.9 mph 32.2 mph N/A   Clear
3:15 PM 80.6 °F 23.0 °F 12% 30.18 in 10.0 mi WNW 16.1 mph 20.7 mph N/A   Clear
3:35 PM 80.6 °F 23.0 °F 12% 30.17 in 10.0 mi SW 15.0 mph 27.6 mph N/A   Clear
3:55 PM 80.6 °F 23.0 °F 12% 30.17 in 10.0 mi West 23.0 mph 27.6 mph N/A   Clear
4:15 PM 80.6 °F 23.0 °F 12% 30.16 in 10.0 mi WNW 13.8 mph 23.0 mph N/A   Clear
4:35 PM 80.6 °F 23.0 °F 12% 30.17 in 10.0 mi West 19.6 mph 27.6 mph N/A   Clear
4:55 PM 78.8 °F 23.0 °F 13% 30.16 in 10.0 mi WSW 15.0 mph 32.2 mph N/A   Clear
5:15 PM 78.8 °F 23.0 °F 13% 30.16 in 10.0 mi WSW 12.7 mph 27.6 mph N/A   Clear
5:35 PM 77.0 °F 23.0 °F 13% 30.17 in 10.0 mi WSW 18.4 mph 25.3 mph N/A   Clear
5:55 PM 75.2 °F 23.0 °F 14% 30.17 in 10.0 mi WSW 13.8 mph 20.7 mph N/A   Clear
6:35 PM 73.4 °F 21.2 °F 14% 30.17 in 10.0 mi SW 17.3 mph 29.9 mph N/A   Clear
6:55 PM 71.6 °F 19.4 °F 14% 30.17 in 10.0 mi WSW 17.3 mph 26.5 mph N/A   Clear
7:15 PM 71.6 °F 19.4 °F 14% 30.16 in 10.0 mi SW 15.0 mph 25.3 mph N/A   Clear
7:35 PM 71.6 °F 17.6 °F 13% 30.16 in 10.0 mi WSW 9.2 mph 19.6 mph N/A   Clear
7:55 PM 69.8 °F 21.2 °F 16% 30.16 in 10.0 mi NNW 11.5 mph 16.1 mph N/A   Clear
8:15 PM 66.2 °F 23.0 °F 19% 30.17 in 10.0 mi NNW 16.1 mph 23.0 mph N/A   Clear
8:35 PM 66.2 °F 21.2 °F 18% 30.17 in 10.0 mi WNW 9.2 mph 21.9 mph N/A   Clear
8:55 PM 68.0 °F 19.4 °F 16% 30.18 in 10.0 mi WNW 12.7 mph 16.1 mph N/A   Clear
9:15 PM 66.2 °F 23.0 °F 19% 30.18 in 10.0 mi West 8.1 mph - N/A   Clear
9:35 PM 64.4 °F 21.2 °F 19% 30.18 in 10.0 mi SW 8.1 mph - N/A   Clear
9:55 PM 62.6 °F 21.2 °F 20% 30.18 in 10.0 mi NNW 6.9 mph - N/A   Clear
10:15 PM 62.6 °F 21.2 °F 20% 30.17 in 10.0 mi North 11.5 mph 17.3 mph N/A   Clear
10:35 PM 62.6 °F 21.2 °F 20% 30.17 in 10.0 mi NNE 10.4 mph - N/A   Clear
10:55 PM 62.6 °F 19.4 °F 19% 30.17 in 10.0 mi NE 4.6 mph - N/A   Clear
11:15 PM 62.6 °F 21.2 °F 20% 30.17 in 10.0 mi Calm Calm - N/A   Clear
11:35 PM 59.0 °F 21.2 °F 23% 30.17 in 10.0 mi Calm Calm - N/A   Clear
11:55 PM 59.0 °F 23.0 °F 25% 30.17 in 10.0 mi NNE 5.8 mph - N/A   Clear